Terminal Aerodrome Forecast
Issued by NWS Mt. Holly, NJ

Home | Current Version | Previous Version | Text Only | Print | Product List | Glossary On
Versions: 1 2 3 4 5 6 7 8 9 10 11 12 13 14 15 16 17 18 19 20 21 22 23 24
395
FTUS41 KPHI 272326
TAFPHL
TAF
KPHL 272326Z 2800/2906 20005KT P6SM FEW060
     FM280400 VRB03KT P6SM SKC
     FM281200 06008KT P6SM SCT030
     FM281500 08008KT P6SM BKN040
     FM281800 08010KT P6SM BKN025
     FM282300 07012KT P6SM VCSH OVC015
     FM290100 07014G22KT 5SM -SHRA OVC010=

USA.gov is the U.S. government's official web portal to all federal, state and local government web resources and services.